sensor_id;sensor_type;location;lat;lon;timestamp;temperature;humidity
75217;HTU21D;63800;51.972;5.682;2023-06-22T00:01:55;19.52;79.38
75217;HTU21D;63800;51.972;5.682;2023-06-22T00:04:21;19.40;79.15
75217;HTU21D;63800;51.972;5.682;2023-06-22T00:06:46;19.52;79.04
75217;HTU21D;63800;51.972;5.682;2023-06-22T00:09:12;19.46;79.14
75217;HTU21D;63800;51.972;5.682;2023-06-22T00:11:37;19.44;78.13
75217;HTU21D;63800;51.972;5.682;2023-06-22T00:14:04;19.17;78.82
75217;HTU21D;63800;51.972;5.682;2023-06-22T00:16:33;19.17;79.21
75217;HTU21D;63800;51.972;5.682;2023-06-22T00:18:59;19.33;79.01
75217;HTU21D;63800;51.972;5.682;2023-06-22T00:21:29;19.06;79.71
75217;HTU21D;63800;51.972;5.682;2023-06-22T00:23:54;19.12;78.80
75217;HTU21D;63800;51.972;5.682;2023-06-22T00:26:20;19.16;78.86
75217;HTU21D;63800;51.972;5.682;2023-06-22T00:28:46;19.28;78.58
75217;HTU21D;63800;51.972;5.682;2023-06-22T00:31:12;18.93;79.06
75217;HTU21D;63800;51.972;5.682;2023-06-22T00:33:38;18.85;79.53
75217;HTU21D;63800;51.972;5.682;2023-06-22T00:36:04;18.82;78.85
75217;HTU21D;63800;51.972;5.682;2023-06-22T00:38:29;18.66;80.50
75217;HTU21D;63800;51.972;5.682;2023-06-22T00:40:55;18.72;79.85
75217;HTU21D;63800;51.972;5.682;2023-06-22T00:43:20;18.78;79.47
75217;HTU21D;63800;51.972;5.682;2023-06-22T00:45:45;18.61;80.40
75217;HTU21D;63800;51.972;5.682;2023-06-22T00:48:12;18.72;79.75
75217;HTU21D;63800;51.972;5.682;2023-06-22T00:50:39;18.74;79.37
75217;HTU21D;63800;51.972;5.682;2023-06-22T00:53:06;19.03;77.82
75217;HTU21D;63800;51.972;5.682;2023-06-22T00:55:37;18.96;78.72
75217;HTU21D;63800;51.972;5.682;2023-06-22T00:58:05;18.89;78.59
75217;HTU21D;63800;51.972;5.682;2023-06-22T01:00:33;18.76;79.69
75217;HTU21D;63800;51.972;5.682;2023-06-22T01:02:59;18.78;79.78
75217;HTU21D;63800;51.972;5.682;2023-06-22T01:05:24;18.85;79.17
75217;HTU21D;63800;51.972;5.682;2023-06-22T01:10:43;18.65;80.52
75217;HTU21D;63800;51.972;5.682;2023-06-22T01:13:22;18.74;80.20
75217;HTU21D;63800;51.972;5.682;2023-06-22T01:15:57;18.84;79.67
75217;HTU21D;63800;51.972;5.682;2023-06-22T01:18:26;18.97;79.86
75217;HTU21D;63800;51.972;5.682;2023-06-22T01:20:54;18.64;81.68
75217;HTU21D;63800;51.972;5.682;2023-06-22T01:23:53;18.43;81.71
75217;HTU21D;63800;51.972;5.682;2023-06-22T01:28:57;18.27;82.55
75217;HTU21D;63800;51.972;5.682;2023-06-22T01:31:26;18.20;82.04
75217;HTU21D;63800;51.972;5.682;2023-06-22T01:33:58;18.24;82.55
75217;HTU21D;63800;51.972;5.682;2023-06-22T01:36:25;18.11;83.50
75217;HTU21D;63800;51.972;5.682;2023-06-22T01:38:52;18.34;82.43
75217;HTU21D;63800;51.972;5.682;2023-06-22T01:41:19;18.32;82.70
75217;HTU21D;63800;51.972;5.682;2023-06-22T01:43:45;18.21;83.31
75217;HTU21D;63800;51.972;5.682;2023-06-22T01:46:13;18.28;81.98
75217;HTU21D;63800;51.972;5.682;2023-06-22T01:48:39;18.29;81.47
75217;HTU21D;63800;51.972;5.682;2023-06-22T01:51:05;18.41;80.70
75217;HTU21D;63800;51.972;5.682;2023-06-22T01:53:31;18.41;81.62
75217;HTU21D;63800;51.972;5.682;2023-06-22T01:55:57;18.32;81.34
75217;HTU21D;63800;51.972;5.682;2023-06-22T01:58:26;18.06;83.52
75217;HTU21D;63800;51.972;5.682;2023-06-22T02:01:00;17.95;83.06
75217;HTU21D;63800;51.972;5.682;2023-06-22T02:03:35;17.96;82.81
75217;HTU21D;63800;51.972;5.682;2023-06-22T02:06:17;17.97;83.35
75217;HTU21D;63800;51.972;5.682;2023-06-22T02:08:50;17.95;82.65
75217;HTU21D;63800;51.972;5.682;2023-06-22T02:11:19;17.95;82.43
75217;HTU21D;63800;51.972;5.682;2023-06-22T02:13:45;17.84;82.50
75217;HTU21D;63800;51.972;5.682;2023-06-22T02:16:12;17.88;83.22
75217;HTU21D;63800;51.972;5.682;2023-06-22T02:18:38;17.92;83.17
75217;HTU21D;63800;51.972;5.682;2023-06-22T02:21:05;18.04;82.85
75217;HTU21D;63800;51.972;5.682;2023-06-22T02:23:31;18.03;82.59
75217;HTU21D;63800;51.972;5.682;2023-06-22T02:25:58;17.89;83.36
75217;HTU21D;63800;51.972;5.682;2023-06-22T02:28:23;17.81;83.81
75217;HTU21D;63800;51.972;5.682;2023-06-22T02:30:49;17.82;83.53
75217;HTU21D;63800;51.972;5.682;2023-06-22T02:33:14;17.78;83.86
75217;HTU21D;63800;51.972;5.682;2023-06-22T02:35:39;17.92;83.65
75217;HTU21D;63800;51.972;5.682;2023-06-22T02:38:10;17.77;84.21
75217;HTU21D;63800;51.972;5.682;2023-06-22T02:40:36;17.83;84.14
75217;HTU21D;63800;51.972;5.682;2023-06-22T02:43:01;17.77;84.26
75217;HTU21D;63800;51.972;5.682;2023-06-22T02:45:28;17.96;83.42
75217;HTU21D;63800;51.972;5.682;2023-06-22T02:47:53;18.12;82.30
75217;HTU21D;63800;51.972;5.682;2023-06-22T02:50:19;17.70;84.85
75217;HTU21D;63800;51.972;5.682;2023-06-22T02:52:44;17.62;85.14
75217;HTU21D;63800;51.972;5.682;2023-06-22T02:55:10;17.56;84.64
75217;HTU21D;63800;51.972;5.682;2023-06-22T02:57:35;17.66;84.35
75217;HTU21D;63800;51.972;5.682;2023-06-22T03:00:03;17.58;84.69
75217;HTU21D;63800;51.972;5.682;2023-06-22T03:02:37;17.60;84.72
75217;HTU21D;63800;51.972;5.682;2023-06-22T03:05:03;17.53;84.40
75217;HTU21D;63800;51.972;5.682;2023-06-22T03:07:29;17.49;85.33
75217;HTU21D;63800;51.972;5.682;2023-06-22T03:09:55;17.63;84.28
75217;HTU21D;63800;51.972;5.682;2023-06-22T03:12:20;17.67;85.07
75217;HTU21D;63800;51.972;5.682;2023-06-22T03:14:46;17.70;84.33
75217;HTU21D;63800;51.972;5.682;2023-06-22T03:17:11;17.58;84.39
75217;HTU21D;63800;51.972;5.682;2023-06-22T03:19:37;17.48;85.29
75217;HTU21D;63800;51.972;5.682;2023-06-22T03:22:03;17.54;84.64
75217;HTU21D;63800;51.972;5.682;2023-06-22T03:24:28;17.48;84.74
75217;HTU21D;63800;51.972;5.682;2023-06-22T03:26:55;17.60;84.71
75217;HTU21D;63800;51.972;5.682;2023-06-22T03:29:20;17.66;84.53
75217;HTU21D;63800;51.972;5.682;2023-06-22T03:31:46;17.61;85.08
75217;HTU21D;63800;51.972;5.682;2023-06-22T03:34:11;17.77;84.71
75217;HTU21D;63800;51.972;5.682;2023-06-22T03:36:37;17.55;85.09
75217;HTU21D;63800;51.972;5.682;2023-06-22T03:39:02;17.54;84.57
75217;HTU21D;63800;51.972;5.682;2023-06-22T03:41:27;17.73;83.59
75217;HTU21D;63800;51.972;5.682;2023-06-22T03:43:53;17.67;83.94
75217;HTU21D;63800;51.972;5.682;2023-06-22T03:46:18;17.68;84.39
75217;HTU21D;63800;51.972;5.682;2023-06-22T03:48:45;17.55;85.42
75217;HTU21D;63800;51.972;5.682;2023-06-22T03:51:10;17.81;84.82
75217;HTU21D;63800;51.972;5.682;2023-06-22T03:53:36;17.87;85.00
75217;HTU21D;63800;51.972;5.682;2023-06-22T03:56:01;17.83;84.55
75217;HTU21D;63800;51.972;5.682;2023-06-22T03:58:26;17.84;84.37
75217;HTU21D;63800;51.972;5.682;2023-06-22T04:00:57;17.79;83.81
75217;HTU21D;63800;51.972;5.682;2023-06-22T04:03:23;17.65;84.65
75217;HTU21D;63800;51.972;5.682;2023-06-22T04:05:48;17.79;84.56
75217;HTU21D;63800;51.972;5.682;2023-06-22T04:08:14;17.90;84.47
75217;HTU21D;63800;51.972;5.682;2023-06-22T04:10:40;17.84;84.81
75217;HTU21D;63800;51.972;5.682;2023-06-22T04:13:06;17.85;84.74
75217;HTU21D;63800;51.972;5.682;2023-06-22T04:15:31;17.90;84.31
75217;HTU21D;63800;51.972;5.682;2023-06-22T04:17:57;17.85;85.22
75217;HTU21D;63800;51.972;5.682;2023-06-22T04:20:23;17.79;85.61
75217;HTU21D;63800;51.972;5.682;2023-06-22T04:22:53;17.78;86.24
75217;HTU21D;63800;51.972;5.682;2023-06-22T04:25:19;17.89;85.81
75217;HTU21D;63800;51.972;5.682;2023-06-22T04:27:45;17.98;85.58
75217;HTU21D;63800;51.972;5.682;2023-06-22T04:30:11;17.96;85.85
75217;HTU21D;63800;51.972;5.682;2023-06-22T04:32:37;18.05;85.13
75217;HTU21D;63800;51.972;5.682;2023-06-22T04:35:03;18.14;85.10
75217;HTU21D;63800;51.972;5.682;2023-06-22T04:37:33;18.06;85.67
75217;HTU21D;63800;51.972;5.682;2023-06-22T04:39:58;17.92;86.66
75217;HTU21D;63800;51.972;5.682;2023-06-22T04:42:26;17.97;87.56
75217;HTU21D;63800;51.972;5.682;2023-06-22T04:44:52;18.07;86.36
75217;HTU21D;63800;51.972;5.682;2023-06-22T04:47:17;18.09;87.04
75217;HTU21D;63800;51.972;5.682;2023-06-22T04:49:42;18.25;87.34
75217;HTU21D;63800;51.972;5.682;2023-06-22T04:52:10;18.21;86.54
75217;HTU21D;63800;51.972;5.682;2023-06-22T04:54:38;18.24;87.75
75217;HTU21D;63800;51.972;5.682;2023-06-22T04:57:05;18.20;87.61
75217;HTU21D;63800;51.972;5.682;2023-06-22T04:59:36;18.28;86.99
75217;HTU21D;63800;51.972;5.682;2023-06-22T05:02:04;18.43;86.83
75217;HTU21D;63800;51.972;5.682;2023-06-22T05:04:31;18.52;87.08
75217;HTU21D;63800;51.972;5.682;2023-06-22T05:06:57;18.42;87.95
75217;HTU21D;63800;51.972;5.682;2023-06-22T05:09:23;18.37;87.67
75217;HTU21D;63800;51.972;5.682;2023-06-22T05:11:50;18.63;85.90
75217;HTU21D;63800;51.972;5.682;2023-06-22T05:14:16;18.57;85.94
75217;HTU21D;63800;51.972;5.682;2023-06-22T05:16:42;18.58;87.51
75217;HTU21D;63800;51.972;5.682;2023-06-22T05:19:07;18.70;86.03
75217;HTU21D;63800;51.972;5.682;2023-06-22T05:21:33;18.70;86.09
75217;HTU21D;63800;51.972;5.682;2023-06-22T05:23:59;18.70;86.41
75217;HTU21D;63800;51.972;5.682;2023-06-22T05:26:29;18.74;86.46
75217;HTU21D;63800;51.972;5.682;2023-06-22T05:28:55;18.77;85.96
75217;HTU21D;63800;51.972;5.682;2023-06-22T05:31:21;18.66;85.55
75217;HTU21D;63800;51.972;5.682;2023-06-22T05:33:47;18.81;85.58
75217;HTU21D;63800;51.972;5.682;2023-06-22T05:36:13;18.94;85.06
75217;HTU21D;63800;51.972;5.682;2023-06-22T05:38:40;19.06;85.93
75217;HTU21D;63800;51.972;5.682;2023-06-22T05:41:07;19.08;85.32
75217;HTU21D;63800;51.972;5.682;2023-06-22T05:43:33;19.18;85.22
75217;HTU21D;63800;51.972;5.682;2023-06-22T05:46:00;19.15;85.09
75217;HTU21D;63800;51.972;5.682;2023-06-22T05:48:25;19.22;84.44
75217;HTU21D;63800;51.972;5.682;2023-06-22T05:50:51;19.20;84.07
75217;HTU21D;63800;51.972;5.682;2023-06-22T05:53:16;19.32;85.08
75217;HTU21D;63800;51.972;5.682;2023-06-22T05:55:42;19.32;85.61
75217;HTU21D;63800;51.972;5.682;2023-06-22T05:58:08;19.40;85.21
75217;HTU21D;63800;51.972;5.682;2023-06-22T06:00:34;19.61;81.17
75217;HTU21D;63800;51.972;5.682;2023-06-22T06:03:00;19.65;83.22
75217;HTU21D;63800;51.972;5.682;2023-06-22T06:05:35;19.83;81.73
75217;HTU21D;63800;51.972;5.682;2023-06-22T06:08:01;19.77;81.80
75217;HTU21D;63800;51.972;5.682;2023-06-22T06:10:27;19.85;79.37
75217;HTU21D;63800;51.972;5.682;2023-06-22T06:12:55;19.89;80.75
75217;HTU21D;63800;51.972;5.682;2023-06-22T06:15:20;20.03;80.67
75217;HTU21D;63800;51.972;5.682;2023-06-22T06:17:50;20.15;81.43
75217;HTU21D;63800;51.972;5.682;2023-06-22T06:20:19;20.07;82.36
75217;HTU21D;63800;51.972;5.682;2023-06-22T06:22:45;20.13;81.17
75217;HTU21D;63800;51.972;5.682;2023-06-22T06:25:11;20.13;83.61
75217;HTU21D;63800;51.972;5.682;2023-06-22T06:27:50;20.28;82.61
75217;HTU21D;63800;51.972;5.682;2023-06-22T06:30:18;20.37;81.23
75217;HTU21D;63800;51.972;5.682;2023-06-22T06:32:44;20.31;79.56
75217;HTU21D;63800;51.972;5.682;2023-06-22T06:35:11;20.40;81.45
75217;HTU21D;63800;51.972;5.682;2023-06-22T06:37:39;20.59;80.74
75217;HTU21D;63800;51.972;5.682;2023-06-22T06:40:06;20.85;79.43
75217;HTU21D;63800;51.972;5.682;2023-06-22T06:42:36;20.98;79.11
75217;HTU21D;63800;51.972;5.682;2023-06-22T06:45:04;21.04;78.42
75217;HTU21D;63800;51.972;5.682;2023-06-22T06:47:30;21.29;78.19
75217;HTU21D;63800;51.972;5.682;2023-06-22T06:49:55;21.42;76.26
75217;HTU21D;63800;51.972;5.682;2023-06-22T06:52:21;21.47;75.47
75217;HTU21D;63800;51.972;5.682;2023-06-22T06:54:46;21.61;77.24
75217;HTU21D;63800;51.972;5.682;2023-06-22T06:57:12;21.55;75.18
75217;HTU21D;63800;51.972;5.682;2023-06-22T06:59:39;21.69;73.72
75217;HTU21D;63800;51.972;5.682;2023-06-22T07:02:04;21.79;76.22
75217;HTU21D;63800;51.972;5.682;2023-06-22T07:04:30;21.81;74.80
75217;HTU21D;63800;51.972;5.682;2023-06-22T07:06:55;21.84;75.14
75217;HTU21D;63800;51.972;5.682;2023-06-22T07:09:21;21.88;75.57
75217;HTU21D;63800;51.972;5.682;2023-06-22T07:11:46;21.87;74.44
75217;HTU21D;63800;51.972;5.682;2023-06-22T07:14:11;21.91;74.29
75217;HTU21D;63800;51.972;5.682;2023-06-22T07:16:37;21.92;74.42
75217;HTU21D;63800;51.972;5.682;2023-06-22T07:19:02;21.89;77.05
75217;HTU21D;63800;51.972;5.682;2023-06-22T07:21:28;21.72;72.13
75217;HTU21D;63800;51.972;5.682;2023-06-22T07:23:53;21.87;71.72
75217;HTU21D;63800;51.972;5.682;2023-06-22T07:26:20;21.97;72.63
75217;HTU21D;63800;51.972;5.682;2023-06-22T07:28:45;21.84;71.92
75217;HTU21D;63800;51.972;5.682;2023-06-22T07:31:10;22.05;72.39
75217;HTU21D;63800;51.972;5.682;2023-06-22T07:33:36;22.04;71.08
75217;HTU21D;63800;51.972;5.682;2023-06-22T07:36:01;22.12;71.11
75217;HTU21D;63800;51.972;5.682;2023-06-22T07:38:32;22.39;69.39
75217;HTU21D;63800;51.972;5.682;2023-06-22T07:40:58;22.55;70.48
75217;HTU21D;63800;51.972;5.682;2023-06-22T07:43:23;22.61;69.11
75217;HTU21D;63800;51.972;5.682;2023-06-22T07:45:49;22.50;68.55
75217;HTU21D;63800;51.972;5.682;2023-06-22T07:48:21;22.57;68.07
75217;HTU21D;63800;51.972;5.682;2023-06-22T07:50:47;22.64;68.71
75217;HTU21D;63800;51.972;5.682;2023-06-22T07:53:13;22.70;67.35
75217;HTU21D;63800;51.972;5.682;2023-06-22T07:55:38;22.58;68.02
75217;HTU21D;63800;51.972;5.682;2023-06-22T07:58:04;22.67;66.83
75217;HTU21D;63800;51.972;5.682;2023-06-22T08:00:29;22.77;68.85
75217;HTU21D;63800;51.972;5.682;2023-06-22T08:02:54;22.92;65.95
75217;HTU21D;63800;51.972;5.682;2023-06-22T08:05:20;22.92;65.88
75217;HTU21D;63800;51.972;5.682;2023-06-22T08:07:45;23.10;65.37
75217;HTU21D;63800;51.972;5.682;2023-06-22T08:10:12;23.21;67.27
75217;HTU21D;63800;51.972;5.682;2023-06-22T08:12:41;23.15;65.33
75217;HTU21D;63800;51.972;5.682;2023-06-22T08:15:07;23.16;64.41
75217;HTU21D;63800;51.972;5.682;2023-06-22T08:17:36;23.24;63.68
75217;HTU21D;63800;51.972;5.682;2023-06-22T08:20:03;23.49;64.27
75217;HTU21D;63800;51.972;5.682;2023-06-22T08:22:34;23.71;64.78
75217;HTU21D;63800;51.972;5.682;2023-06-22T08:25:01;23.66;64.56
75217;HTU21D;63800;51.972;5.682;2023-06-22T08:27:27;23.70;65.08
75217;HTU21D;63800;51.972;5.682;2023-06-22T08:29:53;23.79;64.98
75217;HTU21D;63800;51.972;5.682;2023-06-22T08:32:23;23.74;63.60
75217;HTU21D;63800;51.972;5.682;2023-06-22T08:34:49;23.46;63.69
75217;HTU21D;63800;51.972;5.682;2023-06-22T08:37:14;23.69;62.90
75217;HTU21D;63800;51.972;5.682;2023-06-22T08:39:39;23.83;62.34
75217;HTU21D;63800;51.972;5.682;2023-06-22T08:42:05;23.70;63.15
75217;HTU21D;63800;51.972;5.682;2023-06-22T08:44:31;23.81;62.60
75217;HTU21D;63800;51.972;5.682;2023-06-22T08:46:57;23.83;61.66
75217;HTU21D;63800;51.972;5.682;2023-06-22T08:49:22;24.06;62.46
75217;HTU21D;63800;51.972;5.682;2023-06-22T08:51:48;24.03;61.86
75217;HTU21D;63800;51.972;5.682;2023-06-22T08:54:14;24.19;63.16
75217;HTU21D;63800;51.972;5.682;2023-06-22T08:56:40;24.23;63.76
75217;HTU21D;63800;51.972;5.682;2023-06-22T08:59:05;24.47;61.42
75217;HTU21D;63800;51.972;5.682;2023-06-22T09:01:33;24.46;61.68
75217;HTU21D;63800;51.972;5.682;2023-06-22T09:03:58;24.38;60.92
75217;HTU21D;63800;51.972;5.682;2023-06-22T09:06:25;24.40;60.25
75217;HTU21D;63800;51.972;5.682;2023-06-22T09:08:50;24.45;60.07
75217;HTU21D;63800;51.972;5.682;2023-06-22T09:11:16;24.48;58.35
75217;HTU21D;63800;51.972;5.682;2023-06-22T09:13:42;24.34;58.16
75217;HTU21D;63800;51.972;5.682;2023-06-22T09:16:07;24.42;58.53
75217;HTU21D;63800;51.972;5.682;2023-06-22T09:18:36;24.36;57.46
75217;HTU21D;63800;51.972;5.682;2023-06-22T09:21:01;24.31;57.48
75217;HTU21D;63800;51.972;5.682;2023-06-22T09:23:27;24.20;57.46
75217;HTU21D;63800;51.972;5.682;2023-06-22T09:25:52;24.17;57.03
75217;HTU21D;63800;51.972;5.682;2023-06-22T09:28:18;24.14;57.74
75217;HTU21D;63800;51.972;5.682;2023-06-22T09:30:44;24.24;57.51
75217;HTU21D;63800;51.972;5.682;2023-06-22T09:33:09;24.23;57.90
75217;HTU21D;63800;51.972;5.682;2023-06-22T09:35:35;24.23;57.28
75217;HTU21D;63800;51.972;5.682;2023-06-22T09:38:00;24.19;58.00
75217;HTU21D;63800;51.972;5.682;2023-06-22T09:40:26;24.21;55.92
75217;HTU21D;63800;51.972;5.682;2023-06-22T09:42:51;24.30;56.10
75217;HTU21D;63800;51.972;5.682;2023-06-22T09:45:16;24.27;56.29
75217;HTU21D;63800;51.972;5.682;2023-06-22T09:47:42;24.20;57.41
75217;HTU21D;63800;51.972;5.682;2023-06-22T09:50:08;24.17;56.77
75217;HTU21D;63800;51.972;5.682;2023-06-22T09:52:34;24.08;56.94
75217;HTU21D;63800;51.972;5.682;2023-06-22T09:54:59;23.96;58.53
75217;HTU21D;63800;51.972;5.682;2023-06-22T09:57:24;24.00;59.44
75217;HTU21D;63800;51.972;5.682;2023-06-22T09:59:50;23.75;57.20
75217;HTU21D;63800;51.972;5.682;2023-06-22T10:02:15;23.84;58.55
75217;HTU21D;63800;51.972;5.682;2023-06-22T10:04:41;23.65;60.07
75217;HTU21D;63800;51.972;5.682;2023-06-22T10:07:07;23.57;60.01
75217;HTU21D;63800;51.972;5.682;2023-06-22T10:09:32;23.44;61.47
75217;HTU21D;63800;51.972;5.682;2023-06-22T10:11:58;23.49;61.85
75217;HTU21D;63800;51.972;5.682;2023-06-22T10:14:23;23.59;62.21
75217;HTU21D;63800;51.972;5.682;2023-06-22T10:16:51;23.53;66.56
75217;HTU21D;63800;51.972;5.682;2023-06-22T10:19:17;23.47;64.14
75217;HTU21D;63800;51.972;5.682;2023-06-22T10:21:42;23.41;63.28
75217;HTU21D;63800;51.972;5.682;2023-06-22T10:24:08;23.64;61.99
75217;HTU21D;63800;51.972;5.682;2023-06-22T10:26:35;23.73;61.09
75217;HTU21D;63800;51.972;5.682;2023-06-22T10:29:01;23.71;62.38
75217;HTU21D;63800;51.972;5.682;2023-06-22T10:31:27;23.68;65.11
75217;HTU21D;63800;51.972;5.682;2023-06-22T10:33:53;23.87;62.25
75217;HTU21D;63800;51.972;5.682;2023-06-22T10:36:19;23.79;61.62
75217;HTU21D;63800;51.972;5.682;2023-06-22T10:38:45;23.82;61.12
75217;HTU21D;63800;51.972;5.682;2023-06-22T10:41:10;23.72;63.49
75217;HTU21D;63800;51.972;5.682;2023-06-22T10:43:36;23.86;62.17
75217;HTU21D;63800;51.972;5.682;2023-06-22T10:46:01;23.88;62.43
75217;HTU21D;63800;51.972;5.682;2023-06-22T10:48:27;23.94;62.85
75217;HTU21D;63800;51.972;5.682;2023-06-22T10:50:52;24.12;62.57
75217;HTU21D;63800;51.972;5.682;2023-06-22T10:53:18;24.10;62.53
75217;HTU21D;63800;51.972;5.682;2023-06-22T10:55:44;24.00;62.77
75217;HTU21D;63800;51.972;5.682;2023-06-22T10:58:10;24.09;62.37
75217;HTU21D;63800;51.972;5.682;2023-06-22T11:00:35;24.19;63.47
75217;HTU21D;63800;51.972;5.682;2023-06-22T11:03:00;24.28;62.87
75217;HTU21D;63800;51.972;5.682;2023-06-22T11:05:26;24.03;60.93
75217;HTU21D;63800;51.972;5.682;2023-06-22T11:07:51;24.08;63.57
75217;HTU21D;63800;51.972;5.682;2023-06-22T11:10:17;23.90;62.64
75217;HTU21D;63800;51.972;5.682;2023-06-22T11:12:42;23.95;62.24
75217;HTU21D;63800;51.972;5.682;2023-06-22T11:15:08;23.96;62.41
75217;HTU21D;63800;51.972;5.682;2023-06-22T11:17:34;23.95;64.41
75217;HTU21D;63800;51.972;5.682;2023-06-22T11:20:00;24.09;64.16
75217;HTU21D;63800;51.972;5.682;2023-06-22T11:22:26;24.19;64.30
75217;HTU21D;63800;51.972;5.682;2023-06-22T11:24:51;24.17;64.26
75217;HTU21D;63800;51.972;5.682;2023-06-22T11:27:17;24.15;64.70
75217;HTU21D;63800;51.972;5.682;2023-06-22T11:29:42;24.29;63.39
75217;HTU21D;63800;51.972;5.682;2023-06-22T11:32:08;24.17;62.73
75217;HTU21D;63800;51.972;5.682;2023-06-22T11:34:34;24.17;63.18
75217;HTU21D;63800;51.972;5.682;2023-06-22T11:37:00;23.92;62.57
75217;HTU21D;63800;51.972;5.682;2023-06-22T11:39:25;23.91;64.75
75217;HTU21D;63800;51.972;5.682;2023-06-22T11:41:50;23.79;70.38
75217;HTU21D;63800;51.972;5.682;2023-06-22T11:44:16;23.67;68.33
75217;HTU21D;63800;51.972;5.682;2023-06-22T11:46:41;23.37;73.11
75217;HTU21D;63800;51.972;5.682;2023-06-22T11:49:08;23.41;68.24
75217;HTU21D;63800;51.972;5.682;2023-06-22T11:51:33;23.54;70.42
75217;HTU21D;63800;51.972;5.682;2023-06-22T11:53:58;23.41;70.55
75217;HTU21D;63800;51.972;5.682;2023-06-22T11:56:24;23.36;70.77
75217;HTU21D;63800;51.972;5.682;2023-06-22T11:58:49;22.83;76.76
75217;HTU21D;63800;51.972;5.682;2023-06-22T12:01:17;22.69;75.35
75217;HTU21D;63800;51.972;5.682;2023-06-22T12:03:43;22.42;80.80
75217;HTU21D;63800;51.972;5.682;2023-06-22T12:06:09;22.13;84.10
75217;HTU21D;63800;51.972;5.682;2023-06-22T12:08:35;21.93;85.82
75217;HTU21D;63800;51.972;5.682;2023-06-22T12:11:00;21.78;85.96
75217;HTU21D;63800;51.972;5.682;2023-06-22T12:13:25;21.59;88.04
75217;HTU21D;63800;51.972;5.682;2023-06-22T12:15:51;21.54;90.17
75217;HTU21D;63800;51.972;5.682;2023-06-22T12:18:18;21.52;92.40
75217;HTU21D;63800;51.972;5.682;2023-06-22T12:20:45;21.45;93.40
75217;HTU21D;63800;51.972;5.682;2023-06-22T12:23:11;21.38;94.78
75217;HTU21D;63800;51.972;5.682;2023-06-22T12:25:37;21.44;96.05
75217;HTU21D;63800;51.972;5.682;2023-06-22T12:28:02;21.50;96.68
75217;HTU21D;63800;51.972;5.682;2023-06-22T12:30:29;21.65;94.75
75217;HTU21D;63800;51.972;5.682;2023-06-22T12:32:55;21.51;96.17
75217;HTU21D;63800;51.972;5.682;2023-06-22T12:35:20;21.47;95.94
75217;HTU21D;63800;51.972;5.682;2023-06-22T12:37:46;21.37;96.13
75217;HTU21D;63800;51.972;5.682;2023-06-22T12:40:11;21.16;96.14
75217;HTU21D;63800;51.972;5.682;2023-06-22T12:42:37;21.34;95.96
75217;HTU21D;63800;51.972;5.682;2023-06-22T12:45:03;21.60;92.88
75217;HTU21D;63800;51.972;5.682;2023-06-22T12:47:29;21.52;93.58
75217;HTU21D;63800;51.972;5.682;2023-06-22T12:49:54;21.69;90.37
75217;HTU21D;63800;51.972;5.682;2023-06-22T12:52:19;21.53;88.18
75217;HTU21D;63800;51.972;5.682;2023-06-22T12:54:45;21.27;93.91
75217;HTU21D;63800;51.972;5.682;2023-06-22T12:57:10;21.16;92.25
75217;HTU21D;63800;51.972;5.682;2023-06-22T12:59:36;21.08;96.39
75217;HTU21D;63800;51.972;5.682;2023-06-22T13:02:01;21.16;98.79
75217;HTU21D;63800;51.972;5.682;2023-06-22T13:04:27;21.19;98.03
75217;HTU21D;63800;51.972;5.682;2023-06-22T13:06:52;21.28;95.21
75217;HTU21D;63800;51.972;5.682;2023-06-22T13:09:18;21.27;97.34
75217;HTU21D;63800;51.972;5.682;2023-06-22T13:11:44;21.28;95.72
75217;HTU21D;63800;51.972;5.682;2023-06-22T13:14:09;21.94;81.85
75217;HTU21D;63800;51.972;5.682;2023-06-22T13:16:35;21.87;93.45
75217;HTU21D;63800;51.972;5.682;2023-06-22T13:19:00;21.58;96.64
75217;HTU21D;63800;51.972;5.682;2023-06-22T13:21:26;21.62;95.87
75217;HTU21D;63800;51.972;5.682;2023-06-22T13:23:51;21.32;98.92
75217;HTU21D;63800;51.972;5.682;2023-06-22T13:26:17;21.05;100.02
75217;HTU21D;63800;51.972;5.682;2023-06-22T13:28:43;20.80;100.22
75217;HTU21D;63800;51.972;5.682;2023-06-22T13:31:08;20.80;100.53
75217;HTU21D;63800;51.972;5.682;2023-06-22T13:33:34;20.80;101.54
75217;HTU21D;63800;51.972;5.682;2023-06-22T13:35:59;20.80;100.12
75217;HTU21D;63800;51.972;5.682;2023-06-22T13:38:25;20.74;100.79
75217;HTU21D;63800;51.972;5.682;2023-06-22T13:40:50;20.66;104.15
75217;HTU21D;63800;51.972;5.682;2023-06-22T13:43:16;20.73;102.60
75217;HTU21D;63800;51.972;5.682;2023-06-22T13:45:42;20.69;101.91
75217;HTU21D;63800;51.972;5.682;2023-06-22T13:48:08;20.44;103.67
75217;HTU21D;63800;51.972;5.682;2023-06-22T13:50:33;20.55;102.57
75217;HTU21D;63800;51.972;5.682;2023-06-22T13:52:59;20.61;102.75
75217;HTU21D;63800;51.972;5.682;2023-06-22T13:55:24;20.54;104.04
75217;HTU21D;63800;51.972;5.682;2023-06-22T13:57:51;20.64;103.74
75217;HTU21D;63800;51.972;5.682;2023-06-22T14:00:17;20.51;102.36
75217;HTU21D;63800;51.972;5.682;2023-06-22T14:02:43;20.59;102.56
75217;HTU21D;63800;51.972;5.682;2023-06-22T14:05:09;20.51;102.73
75217;HTU21D;63800;51.972;5.682;2023-06-22T14:07:34;20.50;103.47
75217;HTU21D;63800;51.972;5.682;2023-06-22T14:10:00;20.49;105.00
75217;HTU21D;63800;51.972;5.682;2023-06-22T14:12:26;20.46;104.91
75217;HTU21D;63800;51.972;5.682;2023-06-22T14:14:52;20.47;103.07
75217;HTU21D;63800;51.972;5.682;2023-06-22T14:17:17;20.68;100.97
75217;HTU21D;63800;51.972;5.682;2023-06-22T14:19:49;20.71;103.15
75217;HTU21D;63800;51.972;5.682;2023-06-22T14:22:14;20.69;100.84
75217;HTU21D;63800;51.972;5.682;2023-06-22T14:24:39;20.81;97.41
75217;HTU21D;63800;51.972;5.682;2023-06-22T14:27:05;20.59;97.86
75217;HTU21D;63800;51.972;5.682;2023-06-22T14:29:33;20.65;97.26
75217;HTU21D;63800;51.972;5.682;2023-06-22T14:31:59;20.39;100.83
75217;HTU21D;63800;51.972;5.682;2023-06-22T14:34:24;20.33;102.89
75217;HTU21D;63800;51.972;5.682;2023-06-22T14:36:50;20.47;98.15
75217;HTU21D;63800;51.972;5.682;2023-06-22T14:39:15;20.50;98.69
75217;HTU21D;63800;51.972;5.682;2023-06-22T14:41:40;20.34;99.16
75217;HTU21D;63800;51.972;5.682;2023-06-22T14:44:07;20.26;102.25
75217;HTU21D;63800;51.972;5.682;2023-06-22T14:46:32;20.32;99.74
75217;HTU21D;63800;51.972;5.682;2023-06-22T14:48:58;20.30;98.96
75217;HTU21D;63800;51.972;5.682;2023-06-22T14:51:23;20.05;98.19
75217;HTU21D;63800;51.972;5.682;2023-06-22T14:53:49;20.12;98.70
75217;HTU21D;63800;51.972;5.682;2023-06-22T14:56:14;20.15;99.94
75217;HTU21D;63800;51.972;5.682;2023-06-22T14:58:41;20.06;99.97
75217;HTU21D;63800;51.972;5.682;2023-06-22T15:01:10;20.24;98.64
75217;HTU21D;63800;51.972;5.682;2023-06-22T15:03:35;20.20;96.75
75217;HTU21D;63800;51.972;5.682;2023-06-22T15:06:02;20.09;97.64
75217;HTU21D;63800;51.972;5.682;2023-06-22T15:08:28;20.13;97.89
75217;HTU21D;63800;51.972;5.682;2023-06-22T15:10:54;20.00;100.45
75217;HTU21D;63800;51.972;5.682;2023-06-22T15:13:20;19.89;102.22
75217;HTU21D;63800;51.972;5.682;2023-06-22T15:15:48;20.13;98.11